sensor_id;sensor_type;location;lat;lon;timestamp;P1;durP1;ratioP1;P2;durP2;ratioP2
68583;SDS011;55557;49.220;11.150;2023-02-02T00:01:51;12.03;;;3.10;;
68583;SDS011;55557;49.220;11.150;2023-02-02T00:04:18;9.63;;;2.63;;
68583;SDS011;55557;49.220;11.150;2023-02-02T00:06:45;5.13;;;1.77;;
68583;SDS011;55557;49.220;11.150;2023-02-02T00:09:11;17.77;;;3.10;;
68583;SDS011;55557;49.220;11.150;2023-02-02T00:11:38;8.30;;;2.10;;
68583;SDS011;55557;49.220;11.150;2023-02-02T00:14:04;5.90;;;2.30;;
68583;SDS011;55557;49.220;11.150;2023-02-02T00:16:33;10.33;;;2.00;;
68583;SDS011;55557;49.220;11.150;2023-02-02T00:19:01;5.10;;;2.10;;
68583;SDS011;55557;49.220;11.150;2023-02-02T00:21:27;5.07;;;2.17;;
68583;SDS011;55557;49.220;11.150;2023-02-02T00:23:53;6.77;;;2.00;;
68583;SDS011;55557;49.220;11.150;2023-02-02T00:26:19;7.03;;;1.90;;
68583;SDS011;55557;49.220;11.150;2023-02-02T00:28:46;5.53;;;1.40;;
68583;SDS011;55557;49.220;11.150;2023-02-02T00:31:12;6.43;;;2.27;;
68583;SDS011;55557;49.220;11.150;2023-02-02T00:33:38;9.37;;;1.97;;
68583;SDS011;55557;49.220;11.150;2023-02-02T00:36:04;7.40;;;1.70;;
68583;SDS011;55557;49.220;11.150;2023-02-02T00:38:30;7.90;;;1.93;;
68583;SDS011;55557;49.220;11.150;2023-02-02T00:40:56;4.70;;;1.57;;
68583;SDS011;55557;49.220;11.150;2023-02-02T00:43:22;6.73;;;2.07;;
68583;SDS011;55557;49.220;11.150;2023-02-02T00:45:51;10.47;;;1.93;;
68583;SDS011;55557;49.220;11.150;2023-02-02T00:48:17;5.73;;;1.90;;
68583;SDS011;55557;49.220;11.150;2023-02-02T00:50:44;5.77;;;1.90;;
68583;SDS011;55557;49.220;11.150;2023-02-02T00:53:10;7.33;;;2.07;;
68583;SDS011;55557;49.220;11.150;2023-02-02T00:55:36;4.33;;;1.50;;
68583;SDS011;55557;49.220;11.150;2023-02-02T00:58:02;8.87;;;2.37;;
68583;SDS011;55557;49.220;11.150;2023-02-02T01:00:27;7.67;;;1.90;;
68583;SDS011;55557;49.220;11.150;2023-02-02T01:02:54;6.73;;;1.87;;
68583;SDS011;55557;49.220;11.150;2023-02-02T01:05:21;5.53;;;1.77;;
68583;SDS011;55557;49.220;11.150;2023-02-02T01:07:47;5.27;;;2.00;;
68583;SDS011;55557;49.220;11.150;2023-02-02T01:10:14;3.97;;;1.53;;
68583;SDS011;55557;49.220;11.150;2023-02-02T01:12:41;5.93;;;2.00;;
68583;SDS011;55557;49.220;11.150;2023-02-02T01:15:07;8.30;;;2.33;;
68583;SDS011;55557;49.220;11.150;2023-02-02T01:17:34;10.17;;;2.00;;
68583;SDS011;55557;49.220;11.150;2023-02-02T01:20:00;4.37;;;1.90;;
68583;SDS011;55557;49.220;11.150;2023-02-02T01:22:26;7.23;;;2.20;;
68583;SDS011;55557;49.220;11.150;2023-02-02T01:24:52;2.77;;;1.10;;
68583;SDS011;55557;49.220;11.150;2023-02-02T01:27:18;6.43;;;2.10;;
68583;SDS011;55557;49.220;11.150;2023-02-02T01:29:43;6.07;;;1.50;;
68583;SDS011;55557;49.220;11.150;2023-02-02T01:32:10;5.73;;;1.87;;
68583;SDS011;55557;49.220;11.150;2023-02-02T01:34:36;4.57;;;1.00;;
68583;SDS011;55557;49.220;11.150;2023-02-02T01:37:06;1.83;;;0.90;;
68583;SDS011;55557;49.220;11.150;2023-02-02T01:39:32;1.90;;;1.47;;
68583;SDS011;55557;49.220;11.150;2023-02-02T01:41:58;4.67;;;1.03;;
68583;SDS011;55557;49.220;11.150;2023-02-02T01:47:08;8.13;;;1.23;;
68583;SDS011;55557;49.220;11.150;2023-02-02T01:49:34;7.37;;;1.50;;
68583;SDS011;55557;49.220;11.150;2023-02-02T01:52:02;3.97;;;1.50;;
68583;SDS011;55557;49.220;11.150;2023-02-02T01:54:37;5.47;;;1.43;;
68583;SDS011;55557;49.220;11.150;2023-02-02T01:57:05;5.17;;;1.60;;
68583;SDS011;55557;49.220;11.150;2023-02-02T01:59:33;3.67;;;1.83;;
68583;SDS011;55557;49.220;11.150;2023-02-02T02:01:59;2.90;;;1.40;;
68583;SDS011;55557;49.220;11.150;2023-02-02T02:04:25;5.13;;;1.73;;
68583;SDS011;55557;49.220;11.150;2023-02-02T02:06:52;7.13;;;2.27;;
68583;SDS011;55557;49.220;11.150;2023-02-02T02:09:18;3.70;;;1.40;;
68583;SDS011;55557;49.220;11.150;2023-02-02T02:11:44;3.00;;;1.63;;
68583;SDS011;55557;49.220;11.150;2023-02-02T02:14:10;5.07;;;2.07;;
68583;SDS011;55557;49.220;11.150;2023-02-02T02:21:57;2.50;;;1.50;;
68583;SDS011;55557;49.220;11.150;2023-02-02T02:28:11;3.23;;;1.70;;
68583;SDS011;55557;49.220;11.150;2023-02-02T02:33:18;2.83;;;1.30;;
68583;SDS011;55557;49.220;11.150;2023-02-02T02:36:01;3.27;;;1.57;;
68583;SDS011;55557;49.220;11.150;2023-02-02T02:38:40;5.97;;;1.83;;
68583;SDS011;55557;49.220;11.150;2023-02-02T02:41:10;2.43;;;1.60;;
68583;SDS011;55557;49.220;11.150;2023-02-02T02:43:38;4.03;;;1.80;;
68583;SDS011;55557;49.220;11.150;2023-02-02T02:46:06;6.17;;;1.90;;
68583;SDS011;55557;49.220;11.150;2023-02-02T02:48:33;5.17;;;2.23;;
68583;SDS011;55557;49.220;11.150;2023-02-02T02:51:33;4.37;;;1.67;;
68583;SDS011;55557;49.220;11.150;2023-02-02T02:53:54;2.87;;;1.70;;
68583;SDS011;55557;49.220;11.150;2023-02-02T02:56:43;5.00;;;2.27;;
68583;SDS011;55557;49.220;11.150;2023-02-02T02:59:14;5.73;;;1.77;;
68583;SDS011;55557;49.220;11.150;2023-02-02T03:02:03;3.23;;;1.50;;
68583;SDS011;55557;49.220;11.150;2023-02-02T03:07:03;3.67;;;1.53;;
68583;SDS011;55557;49.220;11.150;2023-02-02T03:09:32;7.40;;;2.33;;
68583;SDS011;55557;49.220;11.150;2023-02-02T03:11:59;4.80;;;1.70;;
68583;SDS011;55557;49.220;11.150;2023-02-02T03:14:25;2.90;;;2.10;;
68583;SDS011;55557;49.220;11.150;2023-02-02T03:16:51;5.97;;;1.97;;
68583;SDS011;55557;49.220;11.150;2023-02-02T03:19:17;7.63;;;2.10;;
68583;SDS011;55557;49.220;11.150;2023-02-02T03:21:43;3.33;;;1.60;;
68583;SDS011;55557;49.220;11.150;2023-02-02T03:24:09;5.47;;;1.57;;
68583;SDS011;55557;49.220;11.150;2023-02-02T03:26:35;4.87;;;2.10;;
68583;SDS011;55557;49.220;11.150;2023-02-02T03:29:02;2.57;;;1.70;;
68583;SDS011;55557;49.220;11.150;2023-02-02T03:31:28;3.73;;;1.10;;
68583;SDS011;55557;49.220;11.150;2023-02-02T03:33:54;1.87;;;0.80;;
68583;SDS011;55557;49.220;11.150;2023-02-02T03:36:21;1.00;;;0.60;;
68583;SDS011;55557;49.220;11.150;2023-02-02T03:38:47;1.87;;;1.30;;
68583;SDS011;55557;49.220;11.150;2023-02-02T03:41:13;1.70;;;1.13;;
68583;SDS011;55557;49.220;11.150;2023-02-02T03:43:39;0.50;;;0.30;;
68583;SDS011;55557;49.220;11.150;2023-02-02T03:46:05;0.30;;;0.30;;
68583;SDS011;55557;49.220;11.150;2023-02-02T03:48:33;0.30;;;0.30;;
68583;SDS011;55557;49.220;11.150;2023-02-02T03:50:59;0.30;;;0.13;;
68583;SDS011;55557;49.220;11.150;2023-02-02T03:53:25;0.10;;;0.10;;
68583;SDS011;55557;49.220;11.150;2023-02-02T03:55:51;0.67;;;0.50;;
68583;SDS011;55557;49.220;11.150;2023-02-02T03:58:17;0.60;;;0.50;;
68583;SDS011;55557;49.220;11.150;2023-02-02T04:00:46;0.97;;;0.30;;
68583;SDS011;55557;49.220;11.150;2023-02-02T04:03:12;0.30;;;0.30;;
68583;SDS011;55557;49.220;11.150;2023-02-02T04:05:37;0.20;;;0.20;;
68583;SDS011;55557;49.220;11.150;2023-02-02T04:08:03;0.10;;;0.10;;
68583;SDS011;55557;49.220;11.150;2023-02-02T04:10:29;0.23;;;0.23;;
68583;SDS011;55557;49.220;11.150;2023-02-02T04:12:56;0.87;;;0.87;;
68583;SDS011;55557;49.220;11.150;2023-02-02T04:15:22;1.10;;;0.70;;
68583;SDS011;55557;49.220;11.150;2023-02-02T04:17:48;0.20;;;0.20;;
68583;SDS011;55557;49.220;11.150;2023-02-02T04:20:13;0.23;;;0.20;;
68583;SDS011;55557;49.220;11.150;2023-02-02T04:22:39;0.40;;;0.30;;
68583;SDS011;55557;49.220;11.150;2023-02-02T04:25:05;0.07;;;0.07;;
68583;SDS011;55557;49.220;11.150;2023-02-02T04:27:32;0.20;;;0.20;;
68583;SDS011;55557;49.220;11.150;2023-02-02T04:29:58;0.73;;;0.50;;
68583;SDS011;55557;49.220;11.150;2023-02-02T04:32:24;0.30;;;0.30;;
68583;SDS011;55557;49.220;11.150;2023-02-02T04:34:50;0.70;;;0.70;;
68583;SDS011;55557;49.220;11.150;2023-02-02T04:37:16;0.60;;;0.60;;
68583;SDS011;55557;49.220;11.150;2023-02-02T04:39:42;0.90;;;0.87;;
68583;SDS011;55557;49.220;11.150;2023-02-02T04:42:09;3.00;;;0.90;;
68583;SDS011;55557;49.220;11.150;2023-02-02T04:44:35;0.70;;;0.70;;
68583;SDS011;55557;49.220;11.150;2023-02-02T04:47:01;0.73;;;0.70;;
68583;SDS011;55557;49.220;11.150;2023-02-02T04:49:27;1.83;;;0.80;;
68583;SDS011;55557;49.220;11.150;2023-02-02T04:51:53;0.93;;;0.93;;
68583;SDS011;55557;49.220;11.150;2023-02-02T04:54:19;2.30;;;1.30;;
68583;SDS011;55557;49.220;11.150;2023-02-02T04:56:47;1.87;;;1.67;;
68583;SDS011;55557;49.220;11.150;2023-02-02T04:59:13;2.50;;;1.37;;
68583;SDS011;55557;49.220;11.150;2023-02-02T05:01:41;1.97;;;1.40;;
68583;SDS011;55557;49.220;11.150;2023-02-02T05:04:09;4.60;;;1.87;;
68583;SDS011;55557;49.220;11.150;2023-02-02T05:06:35;5.00;;;1.70;;
68583;SDS011;55557;49.220;11.150;2023-02-02T05:09:01;2.37;;;1.70;;
68583;SDS011;55557;49.220;11.150;2023-02-02T05:11:27;3.83;;;2.00;;
68583;SDS011;55557;49.220;11.150;2023-02-02T05:13:54;1.73;;;1.50;;
68583;SDS011;55557;49.220;11.150;2023-02-02T05:16:21;6.07;;;1.90;;
68583;SDS011;55557;49.220;11.150;2023-02-02T05:18:48;5.00;;;1.40;;
68583;SDS011;55557;49.220;11.150;2023-02-02T05:21:14;4.33;;;1.80;;
68583;SDS011;55557;49.220;11.150;2023-02-02T05:23:40;2.67;;;1.73;;
68583;SDS011;55557;49.220;11.150;2023-02-02T05:26:06;2.37;;;1.80;;
68583;SDS011;55557;49.220;11.150;2023-02-02T05:28:32;4.63;;;1.70;;
68583;SDS011;55557;49.220;11.150;2023-02-02T05:30:59;3.57;;;1.77;;
68583;SDS011;55557;49.220;11.150;2023-02-02T05:33:30;4.83;;;2.00;;
68583;SDS011;55557;49.220;11.150;2023-02-02T05:35:56;4.43;;;1.63;;
68583;SDS011;55557;49.220;11.150;2023-02-02T05:38:22;1.97;;;1.70;;
68583;SDS011;55557;49.220;11.150;2023-02-02T05:40:48;6.53;;;2.10;;
68583;SDS011;55557;49.220;11.150;2023-02-02T05:43:14;2.47;;;2.07;;
68583;SDS011;55557;49.220;11.150;2023-02-02T05:45:40;6.17;;;2.17;;
68583;SDS011;55557;49.220;11.150;2023-02-02T05:48:07;5.10;;;2.33;;
68583;SDS011;55557;49.220;11.150;2023-02-02T05:50:33;2.50;;;1.70;;
68583;SDS011;55557;49.220;11.150;2023-02-02T05:53:00;4.93;;;2.10;;
68583;SDS011;55557;49.220;11.150;2023-02-02T05:55:25;6.30;;;2.07;;
68583;SDS011;55557;49.220;11.150;2023-02-02T05:57:53;6.13;;;2.20;;
68583;SDS011;55557;49.220;11.150;2023-02-02T06:00:19;3.83;;;2.33;;
68583;SDS011;55557;49.220;11.150;2023-02-02T06:02:46;7.57;;;2.33;;
68583;SDS011;55557;49.220;11.150;2023-02-02T06:05:12;2.57;;;1.90;;
68583;SDS011;55557;49.220;11.150;2023-02-02T06:07:38;6.77;;;2.50;;
68583;SDS011;55557;49.220;11.150;2023-02-02T06:10:04;4.33;;;2.30;;
68583;SDS011;55557;49.220;11.150;2023-02-02T06:12:30;3.80;;;2.20;;
68583;SDS011;55557;49.220;11.150;2023-02-02T06:14:56;7.50;;;2.50;;
68583;SDS011;55557;49.220;11.150;2023-02-02T06:17:22;9.40;;;2.97;;
68583;SDS011;55557;49.220;11.150;2023-02-02T06:19:48;3.83;;;2.43;;
68583;SDS011;55557;49.220;11.150;2023-02-02T06:22:14;2.83;;;2.43;;
68583;SDS011;55557;49.220;11.150;2023-02-02T06:24:40;3.03;;;2.20;;
68583;SDS011;55557;49.220;11.150;2023-02-02T06:27:06;4.00;;;2.70;;
68583;SDS011;55557;49.220;11.150;2023-02-02T06:29:31;3.83;;;2.40;;
68583;SDS011;55557;49.220;11.150;2023-02-02T06:31:57;2.90;;;1.87;;
68583;SDS011;55557;49.220;11.150;2023-02-02T06:34:23;3.33;;;2.07;;
68583;SDS011;55557;49.220;11.150;2023-02-02T06:36:49;2.40;;;1.90;;
68583;SDS011;55557;49.220;11.150;2023-02-02T06:39:15;1.90;;;1.80;;
68583;SDS011;55557;49.220;11.150;2023-02-02T06:41:41;1.63;;;1.53;;
68583;SDS011;55557;49.220;11.150;2023-02-02T06:44:10;2.30;;;1.50;;
68583;SDS011;55557;49.220;11.150;2023-02-02T06:46:38;1.80;;;1.37;;
68583;SDS011;55557;49.220;11.150;2023-02-02T06:49:07;1.93;;;1.20;;
68583;SDS011;55557;49.220;11.150;2023-02-02T06:51:35;1.00;;;1.00;;
68583;SDS011;55557;49.220;11.150;2023-02-02T06:54:01;1.07;;;1.00;;
68583;SDS011;55557;49.220;11.150;2023-02-02T06:56:27;0.80;;;0.80;;
68583;SDS011;55557;49.220;11.150;2023-02-02T06:58:54;0.53;;;0.53;;
68583;SDS011;55557;49.220;11.150;2023-02-02T07:01:20;0.83;;;0.67;;
68583;SDS011;55557;49.220;11.150;2023-02-02T07:03:49;0.40;;;0.40;;
68583;SDS011;55557;49.220;11.150;2023-02-02T07:06:19;1.33;;;0.77;;
68583;SDS011;55557;49.220;11.150;2023-02-02T07:08:46;2.00;;;0.50;;
68583;SDS011;55557;49.220;11.150;2023-02-02T07:11:14;1.03;;;0.57;;
68583;SDS011;55557;49.220;11.150;2023-02-02T07:13:41;1.97;;;0.77;;
68583;SDS011;55557;49.220;11.150;2023-02-02T07:16:07;0.50;;;0.50;;
68583;SDS011;55557;49.220;11.150;2023-02-02T07:18:33;1.40;;;0.50;;
68583;SDS011;55557;49.220;11.150;2023-02-02T07:21:01;1.70;;;0.70;;
68583;SDS011;55557;49.220;11.150;2023-02-02T07:23:27;0.47;;;0.47;;
68583;SDS011;55557;49.220;11.150;2023-02-02T07:26:02;0.50;;;0.50;;
68583;SDS011;55557;49.220;11.150;2023-02-02T07:28:29;0.70;;;0.60;;
68583;SDS011;55557;49.220;11.150;2023-02-02T07:30:54;0.67;;;0.63;;
68583;SDS011;55557;49.220;11.150;2023-02-02T07:33:20;0.53;;;0.50;;
68583;SDS011;55557;49.220;11.150;2023-02-02T07:35:46;6.63;;;0.90;;
68583;SDS011;55557;49.220;11.150;2023-02-02T07:38:12;1.23;;;1.13;;
68583;SDS011;55557;49.220;11.150;2023-02-02T07:40:38;0.87;;;0.87;;
68583;SDS011;55557;49.220;11.150;2023-02-02T07:43:04;1.13;;;0.90;;
68583;SDS011;55557;49.220;11.150;2023-02-02T07:45:30;1.17;;;1.00;;
68583;SDS011;55557;49.220;11.150;2023-02-02T07:47:57;2.33;;;1.37;;
68583;SDS011;55557;49.220;11.150;2023-02-02T07:50:23;2.00;;;1.37;;
68583;SDS011;55557;49.220;11.150;2023-02-02T07:52:50;1.23;;;1.00;;
68583;SDS011;55557;49.220;11.150;2023-02-02T07:55:16;3.20;;;1.50;;
68583;SDS011;55557;49.220;11.150;2023-02-02T07:57:42;3.03;;;2.73;;
68583;SDS011;55557;49.220;11.150;2023-02-02T08:00:08;3.30;;;1.57;;
68583;SDS011;55557;49.220;11.150;2023-02-02T08:02:34;1.83;;;1.20;;
68583;SDS011;55557;49.220;11.150;2023-02-02T08:05:00;3.13;;;1.23;;
68583;SDS011;55557;49.220;11.150;2023-02-02T08:07:26;2.93;;;1.50;;
68583;SDS011;55557;49.220;11.150;2023-02-02T08:09:52;7.53;;;6.40;;
68583;SDS011;55557;49.220;11.150;2023-02-02T08:12:18;8.83;;;6.97;;
68583;SDS011;55557;49.220;11.150;2023-02-02T08:14:48;22.90;;;13.07;;
68583;SDS011;55557;49.220;11.150;2023-02-02T08:17:14;5.53;;;4.10;;
68583;SDS011;55557;49.220;11.150;2023-02-02T08:19:41;4.10;;;2.50;;
68583;SDS011;55557;49.220;11.150;2023-02-02T08:22:07;2.80;;;2.50;;
68583;SDS011;55557;49.220;11.150;2023-02-02T08:24:33;2.73;;;1.80;;
68583;SDS011;55557;49.220;11.150;2023-02-02T08:27:04;1.50;;;1.40;;
68583;SDS011;55557;49.220;11.150;2023-02-02T08:29:30;12.17;;;4.90;;
68583;SDS011;55557;49.220;11.150;2023-02-02T08:31:56;11.33;;;5.90;;
68583;SDS011;55557;49.220;11.150;2023-02-02T08:34:22;6.73;;;5.27;;
68583;SDS011;55557;49.220;11.150;2023-02-02T08:36:48;7.67;;;6.30;;
68583;SDS011;55557;49.220;11.150;2023-02-02T08:39:14;9.03;;;5.10;;
68583;SDS011;55557;49.220;11.150;2023-02-02T08:41:40;9.70;;;5.67;;
68583;SDS011;55557;49.220;11.150;2023-02-02T08:44:07;14.33;;;8.17;;
68583;SDS011;55557;49.220;11.150;2023-02-02T08:46:33;19.67;;;11.97;;
68583;SDS011;55557;49.220;11.150;2023-02-02T08:48:59;8.47;;;5.07;;
68583;SDS011;55557;49.220;11.150;2023-02-02T08:51:26;7.53;;;6.80;;
68583;SDS011;55557;49.220;11.150;2023-02-02T08:53:52;14.80;;;5.30;;
68583;SDS011;55557;49.220;11.150;2023-02-02T08:56:18;13.53;;;4.33;;
68583;SDS011;55557;49.220;11.150;2023-02-02T08:58:45;7.63;;;4.57;;
68583;SDS011;55557;49.220;11.150;2023-02-02T09:01:13;11.70;;;5.20;;
68583;SDS011;55557;49.220;11.150;2023-02-02T09:03:39;7.03;;;3.70;;
68583;SDS011;55557;49.220;11.150;2023-02-02T09:06:06;8.17;;;4.27;;
68583;SDS011;55557;49.220;11.150;2023-02-02T09:08:32;9.07;;;4.50;;
68583;SDS011;55557;49.220;11.150;2023-02-02T09:11:04;15.53;;;6.57;;
68583;SDS011;55557;49.220;11.150;2023-02-02T09:13:30;13.30;;;4.83;;
68583;SDS011;55557;49.220;11.150;2023-02-02T09:15:58;10.60;;;4.43;;
68583;SDS011;55557;49.220;11.150;2023-02-02T09:18:24;9.10;;;4.53;;
68583;SDS011;55557;49.220;11.150;2023-02-02T09:20:50;11.30;;;4.57;;
68583;SDS011;55557;49.220;11.150;2023-02-02T09:23:16;10.07;;;3.60;;
68583;SDS011;55557;49.220;11.150;2023-02-02T09:25:42;14.87;;;4.93;;
68583;SDS011;55557;49.220;11.150;2023-02-02T09:28:08;7.80;;;4.03;;
68583;SDS011;55557;49.220;11.150;2023-02-02T09:30:34;6.07;;;4.33;;
68583;SDS011;55557;49.220;11.150;2023-02-02T09:32:59;9.73;;;7.57;;
68583;SDS011;55557;49.220;11.150;2023-02-02T09:35:25;7.53;;;4.57;;
68583;SDS011;55557;49.220;11.150;2023-02-02T09:37:51;11.20;;;4.80;;
68583;SDS011;55557;49.220;11.150;2023-02-02T09:40:17;7.13;;;5.10;;
68583;SDS011;55557;49.220;11.150;2023-02-02T09:45:27;10.03;;;6.73;;
68583;SDS011;55557;49.220;11.150;2023-02-02T09:48:01;5.73;;;4.20;;
68583;SDS011;55557;49.220;11.150;2023-02-02T09:55:43;7.37;;;4.00;;
68583;SDS011;55557;49.220;11.150;2023-02-02T09:58:12;17.90;;;4.13;;
68583;SDS011;55557;49.220;11.150;2023-02-02T10:00:41;11.33;;;4.27;;
68583;SDS011;55557;49.220;11.150;2023-02-02T10:03:11;9.13;;;4.73;;
68583;SDS011;55557;49.220;11.150;2023-02-02T10:05:43;20.67;;;5.20;;
68583;SDS011;55557;49.220;11.150;2023-02-02T10:08:15;11.53;;;4.33;;
68583;SDS011;55557;49.220;11.150;2023-02-02T10:10:43;10.37;;;4.20;;
68583;SDS011;55557;49.220;11.150;2023-02-02T10:13:18;5.57;;;3.77;;
68583;SDS011;55557;49.220;11.150;2023-02-02T10:15:58;8.73;;;4.30;;
68583;SDS011;55557;49.220;11.150;2023-02-02T10:18:38;4.97;;;3.87;;
68583;SDS011;55557;49.220;11.150;2023-02-02T10:21:08;4.23;;;3.83;;
68583;SDS011;55557;49.220;11.150;2023-02-02T10:23:36;6.63;;;3.77;;
68583;SDS011;55557;49.220;11.150;2023-02-02T10:28:33;8.80;;;3.63;;
68583;SDS011;55557;49.220;11.150;2023-02-02T10:31:02;7.77;;;3.97;;
68583;SDS011;55557;49.220;11.150;2023-02-02T10:33:32;11.80;;;3.77;;
68583;SDS011;55557;49.220;11.150;2023-02-02T10:36:08;5.53;;;4.03;;
68583;SDS011;55557;49.220;11.150;2023-02-02T10:38:42;8.13;;;3.37;;
68583;SDS011;55557;49.220;11.150;2023-02-02T10:46:30;7.80;;;4.63;;
68583;SDS011;55557;49.220;11.150;2023-02-02T10:49:12;11.33;;;4.17;;
68583;SDS011;55557;49.220;11.150;2023-02-02T10:51:39;7.77;;;4.27;;
68583;SDS011;55557;49.220;11.150;2023-02-02T10:54:15;13.20;;;4.27;;
68583;SDS011;55557;49.220;11.150;2023-02-02T10:56:45;12.83;;;6.47;;
68583;SDS011;55557;49.220;11.150;2023-02-02T11:01:38;10.30;;;4.47;;
68583;SDS011;55557;49.220;11.150;2023-02-02T11:04:04;12.30;;;4.47;;
68583;SDS011;55557;49.220;11.150;2023-02-02T11:06:49;8.80;;;3.80;;
68583;SDS011;55557;49.220;11.150;2023-02-02T11:09:26;11.00;;;3.53;;
68583;SDS011;55557;49.220;11.150;2023-02-02T11:12:09;10.67;;;4.40;;
68583;SDS011;55557;49.220;11.150;2023-02-02T11:14:42;8.20;;;4.50;;
68583;SDS011;55557;49.220;11.150;2023-02-02T11:17:17;8.30;;;4.40;;
68583;SDS011;55557;49.220;11.150;2023-02-02T11:19:43;9.60;;;4.30;;
68583;SDS011;55557;49.220;11.150;2023-02-02T11:22:22;9.80;;;4.73;;
68583;SDS011;55557;49.220;11.150;2023-02-02T11:24:49;17.10;;;5.20;;
68583;SDS011;55557;49.220;11.150;2023-02-02T11:27:18;7.87;;;4.43;;
68583;SDS011;55557;49.220;11.150;2023-02-02T11:29:46;8.20;;;4.80;;
68583;SDS011;55557;49.220;11.150;2023-02-02T11:34:45;11.20;;;4.23;;
68583;SDS011;55557;49.220;11.150;2023-02-02T11:37:13;11.87;;;4.93;;
68583;SDS011;55557;49.220;11.150;2023-02-02T11:39:42;12.27;;;5.43;;
68583;SDS011;55557;49.220;11.150;2023-02-02T11:42:21;5.67;;;3.80;;
68583;SDS011;55557;49.220;11.150;2023-02-02T11:45:06;6.20;;;4.10;;
68583;SDS011;55557;49.220;11.150;2023-02-02T11:47:36;10.00;;;4.60;;
68583;SDS011;55557;49.220;11.150;2023-02-02T11:50:02;10.13;;;4.20;;
68583;SDS011;55557;49.220;11.150;2023-02-02T11:52:29;10.97;;;4.77;;
68583;SDS011;55557;49.220;11.150;2023-02-02T11:54:57;10.83;;;4.40;;
68583;SDS011;55557;49.220;11.150;2023-02-02T11:57:24;11.93;;;4.13;;
68583;SDS011;55557;49.220;11.150;2023-02-02T12:02:37;13.00;;;4.90;;
68583;SDS011;55557;49.220;11.150;2023-02-02T12:07:39;13.27;;;4.90;;
68583;SDS011;55557;49.220;11.150;2023-02-02T12:12:44;13.33;;;4.30;;
68583;SDS011;55557;49.220;11.150;2023-02-02T12:18:01;7.33;;;5.00;;
68583;SDS011;55557;49.220;11.150;2023-02-02T12:33:38;13.83;;;3.77;;
68583;SDS011;55557;49.220;11.150;2023-02-02T12:49:46;4.03;;;2.40;;
68583;SDS011;55557;49.220;11.150;2023-02-02T12:52:25;5.97;;;2.30;;
68583;SDS011;55557;49.220;11.150;2023-02-02T12:55:09;9.60;;;3.50;;
68583;SDS011;55557;49.220;11.150;2023-02-02T12:57:56;4.70;;;2.90;;
68583;SDS011;55557;49.220;11.150;2023-02-02T13:00:28;6.97;;;2.70;;
68583;SDS011;55557;49.220;11.150;2023-02-02T13:03:20;3.93;;;2.80;;
68583;SDS011;55557;49.220;11.150;2023-02-02T13:08:24;12.40;;;3.20;;
68583;SDS011;55557;49.220;11.150;2023-02-02T13:10:52;4.13;;;2.80;;
68583;SDS011;55557;49.220;11.150;2023-02-02T13:13:23;5.20;;;2.30;;
68583;SDS011;55557;49.220;11.150;2023-02-02T13:15:58;8.63;;;2.33;;
68583;SDS011;55557;49.220;11.150;2023-02-02T13:18:35;6.20;;;2.70;;
68583;SDS011;55557;49.220;11.150;2023-02-02T13:21:12;12.67;;;2.90;;
68583;SDS011;55557;49.220;11.150;2023-02-02T13:23:45;8.43;;;2.63;;
68583;SDS011;55557;49.220;11.150;2023-02-02T13:28:44;7.13;;;2.67;;
68583;SDS011;55557;49.220;11.150;2023-02-02T13:31:16;10.83;;;2.70;;
68583;SDS011;55557;49.220;11.150;2023-02-02T13:33:44;6.17;;;2.47;;
68583;SDS011;55557;49.220;11.150;2023-02-02T13:36:21;6.63;;;2.83;;
68583;SDS011;55557;49.220;11.150;2023-02-02T13:38:53;4.70;;;3.00;;
68583;SDS011;55557;49.220;11.150;2023-02-02T13:41:20;6.80;;;2.73;;
68583;SDS011;55557;49.220;11.150;2023-02-02T13:46:41;7.47;;;2.83;;
68583;SDS011;55557;49.220;11.150;2023-02-02T13:49:11;4.60;;;2.93;;
68583;SDS011;55557;49.220;11.150;2023-02-02T13:51:48;5.43;;;2.93;;
68583;SDS011;55557;49.220;11.150;2023-02-02T13:59:51;6.20;;;2.70;;
68583;SDS011;55557;49.220;11.150;2023-02-02T14:02:38;6.50;;;2.70;;
68583;SDS011;55557;49.220;11.150;2023-02-02T14:05:06;5.57;;;3.07;;
68583;SDS011;55557;49.220;11.150;2023-02-02T14:07:35;9.90;;;4.03;;
68583;SDS011;55557;49.220;11.150;2023-02-02T14:10:02;4.30;;;3.10;;
68583;SDS011;55557;49.220;11.150;2023-02-02T14:12:29;5.63;;;3.07;;
68583;SDS011;55557;49.220;11.150;2023-02-02T14:14:56;8.70;;;3.17;;
68583;SDS011;55557;49.220;11.150;2023-02-02T14:19:49;7.97;;;3.10;;
68583;SDS011;55557;49.220;11.150;2023-02-02T14:22:36;6.77;;;2.73;;
68583;SDS011;55557;49.220;11.150;2023-02-02T14:25:02;6.03;;;2.67;;
68583;SDS011;55557;49.220;11.150;2023-02-02T14:34:52;5.80;;;3.37;;
68583;SDS011;55557;49.220;11.150;2023-02-02T14:45:27;7.53;;;3.07;;
68583;SDS011;55557;49.220;11.150;2023-02-02T14:50:30;7.60;;;3.63;;
68583;SDS011;55557;49.220;11.150;2023-02-02T15:06:32;4.90;;;2.90;;
68583;SDS011;55557;49.220;11.150;2023-02-02T15:17:04;8.33;;;3.27;;
68583;SDS011;55557;49.220;11.150;2023-02-02T15:19:32;5.03;;;2.93;;
68583;SDS011;55557;49.220;11.150;2023-02-02T15:22:14;14.80;;;5.20;;
68583;SDS011;55557;49.220;11.150;2023-02-02T15:24:43;10.90;;;4.10;;
68583;SDS011;55557;49.220;11.150;2023-02-02T15:27:16;10.10;;;3.50;;
68583;SDS011;55557;49.220;11.150;2023-02-02T15:29:43;6.93;;;3.73;;
68583;SDS011;55557;49.220;11.150;2023-02-02T15:32:13;4.90;;;3.27;;
68583;SDS011;55557;49.220;11.150;2023-02-02T15:34:41;5.50;;;2.73;;
68583;SDS011;55557;49.220;11.150;2023-02-02T15:37:11;7.17;;;3.20;;
68583;SDS011;55557;49.220;11.150;2023-02-02T15:39:53;4.63;;;3.73;;
68583;SDS011;55557;49.220;11.150;2023-02-02T15:42:22;8.67;;;3.87;;
68583;SDS011;55557;49.220;11.150;2023-02-02T15:47:56;4.70;;;3.33;;
68583;SDS011;55557;49.220;11.150;2023-02-02T15:50:23;8.77;;;3.77;;
68583;SDS011;55557;49.220;11.150;2023-02-02T15:52:49;7.77;;;3.77;;
68583;SDS011;55557;49.220;11.150;2023-02-02T15:57:45;7.33;;;3.47;;
68583;SDS011;55557;49.220;11.150;2023-02-02T16:05:46;6.93;;;3.43;;
68583;SDS011;55557;49.220;11.150;2023-02-02T16:08:17;6.63;;;3.47;;
68583;SDS011;55557;49.220;11.150;2023-02-02T16:10:45;13.13;;;4.43;;
68583;SDS011;55557;49.220;11.150;2023-02-02T16:13:19;7.37;;;3.80;;
68583;SDS011;55557;49.220;11.150;2023-02-02T16:15:52;5.43;;;3.30;;
68583;SDS011;55557;49.220;11.150;2023-02-02T16:18:19;5.97;;;3.40;;
68583;SDS011;55557;49.220;11.150;2023-02-02T16:20:46;8.83;;;4.10;;
68583;SDS011;55557;49.220;11.150;2023-02-02T16:23:13;7.20;;;3.80;;
68583;SDS011;55557;49.220;11.150;2023-02-02T16:25:46;9.67;;;4.33;;
68583;SDS011;55557;49.220;11.150;2023-02-02T16:28:13;7.73;;;3.60;;
68583;SDS011;55557;49.220;11.150;2023-02-02T16:30:41;10.60;;;3.93;;
68583;SDS011;55557;49.220;11.150;2023-02-02T16:35:53;9.60;;;3.70;;
68583;SDS011;55557;49.220;11.150;2023-02-02T16:40:48;6.60;;;3.47;;
68583;SDS011;55557;49.220;11.150;2023-02-02T16:45:49;5.27;;;3.50;;
68583;SDS011;55557;49.220;11.150;2023-02-02T16:48:35;8.77;;;4.23;;
68583;SDS011;55557;49.220;11.150;2023-02-02T16:53:34;7.67;;;3.53;;
68583;SDS011;55557;49.220;11.150;2023-02-02T16:56:02;5.10;;;2.53;;
68583;SDS011;55557;49.220;11.150;2023-02-02T16:58:28;12.53;;;4.10;;
68583;SDS011;55557;49.220;11.150;2023-02-02T17:00:56;5.70;;;3.77;;
68583;SDS011;55557;49.220;11.150;2023-02-02T17:03:22;5.23;;;3.20;;
68583;SDS011;55557;49.220;11.150;2023-02-02T17:05:53;4.27;;;3.30;;
68583;SDS011;55557;49.220;11.150;2023-02-02T17:08:23;7.50;;;3.00;;
68583;SDS011;55557;49.220;11.150;2023-02-02T17:10:59;6.73;;;3.47;;
68583;SDS011;55557;49.220;11.150;2023-02-02T17:15:54;11.13;;;3.63;;